»·PEaware :: N714VA KRNM-KMYF

N714VA :: KRNM-KMYF

FLIGHT INFORMATION

Flight Status: Arrived
Operator: Privately registered:
United States
More flights under this callsign
Pilot: Chris P. (3938)
Aircraft: CESSNA 172 SKYHAWK
(C172)
More flights by this aircraft type
Origin: KRNM Ramona
United States
Destination: KMYF Montgomery
United States
More flights between these airports :: More routes between these airports
Route: +ROBNN V208 OCN V23 MZB
File this flight plan on PilotEdge
Remarks:
Altitude:
(Current/Filed)
4,000ft
Speed:
(Current/Filed)
115kts
Departed: 28-Sep-19 06:13 PM
Arrived: 28-Sep-19 06:52 PM
Distance/Time
Traveled:
18nm/0:39
Distance/Time
To Go:
Arrived

Flight Plot

Page will automatically refresh every two minutes.

Flight plan parsing failed; only flown route is shown


Map Options




Map Legend


Flown Route
Filed Route
Departure Airport
Arrival Airport
Navaid (VOR, NDB)
Fix

Horizontal Profiles

Position Reports

Time Latitude Longitude Heading Altitude Ground
Speed
28-Sep-19 17:51 33.039293 -116.908029 275 1390ft 0kts
28-Sep-19 17:52 33.039293 -116.908029 275 1390ft 0kts
28-Sep-19 17:53 33.039293 -116.908029 275 1390ft 0kts
28-Sep-19 17:54 33.039293 -116.908029 275 1390ft 0kts
28-Sep-19 17:55 33.039293 -116.908029 275 1390ft 0kts
28-Sep-19 17:56 33.039293 -116.908029 275 1390ft 0kts
28-Sep-19 17:57 33.039293 -116.908029 275 1390ft 0kts
28-Sep-19 17:58 33.039293 -116.908029 275 1390ft 0kts
28-Sep-19 17:59 33.039293 -116.908029 275 1390ft 0kts
28-Sep-19 18:00 33.039293 -116.908029 275 1390ft 0kts
28-Sep-19 18:01 33.039293 -116.908029 275 1390ft 0kts
28-Sep-19 18:02 33.039293 -116.908029 275 1390ft 0kts
28-Sep-19 18:03 33.039293 -116.908029 275 1390ft 0kts
28-Sep-19 18:04 33.039293 -116.908029 275 1390ft 0kts
28-Sep-19 18:05 33.039293 -116.908029 275 1390ft 0kts
28-Sep-19 18:06 33.039264 -116.908177 194 1390ft 0kts
28-Sep-19 18:07 33.039264 -116.908177 194 1390ft 0kts
28-Sep-19 18:08 33.039264 -116.908177 194 1390ft 0kts
28-Sep-19 18:09 33.038476 -116.907208 194 1389ft 0kts
28-Sep-19 18:10 33.038476 -116.907208 194 1389ft 0kts
28-Sep-19 18:11 33.038476 -116.907208 194 1389ft 0kts
28-Sep-19 18:12 33.038594 -116.911415 280 1397ft 65kts
28-Sep-19 18:13 33.041708 -116.933932 272 2258ft 69kts
28-Sep-19 18:14 33.044627 -116.956200 279 3092ft 67kts
28-Sep-19 18:15 33.047076 -116.978142 278 3874ft 66kts
28-Sep-19 18:16 33.050223 -116.999717 280 4670ft 66kts
28-Sep-19 18:17 33.054696 -117.024650 278 4994ft 92kts
28-Sep-19 18:18 33.060090 -117.055999 279 4983ft 100kts
28-Sep-19 18:19 33.079932 -117.075581 340 4986ft 111kts
28-Sep-19 18:20 33.110656 -117.082297 340 4984ft 112kts
28-Sep-19 18:21 33.141557 -117.088916 340 4983ft 112kts
28-Sep-19 18:22 33.153791 -117.062015 137 4985ft 124kts
28-Sep-19 18:23 33.130172 -117.031993 140 4987ft 123kts
28-Sep-19 18:24 33.106327 -117.002386 140 4990ft 123kts
28-Sep-19 18:25 33.082476 -116.973197 140 4993ft 123kts
28-Sep-19 18:26 33.058386 -116.944028 140 4995ft 123kts
28-Sep-19 18:27 33.034339 -116.915086 140 4997ft 122kts
28-Sep-19 18:29 33.010268 -116.886161 140 4999ft 122kts
28-Sep-19 18:30 32.986314 -116.857302 140 5000ft 122kts
28-Sep-19 18:31 32.962369 -116.828324 140 5000ft 122kts
28-Sep-19 18:32 32.938345 -116.799082 140 4999ft 123kts
28-Sep-19 18:33 32.909728 -116.780314 161 4997ft 117kts
28-Sep-19 18:34 32.880306 -116.777390 201 4996ft 106kts
28-Sep-19 18:35 32.851764 -116.785953 201 4995ft 105kts
28-Sep-19 18:36 32.823532 -116.795159 210 4993ft 102kts
28-Sep-19 18:37 32.796761 -116.810115 211 4513ft 106kts
28-Sep-19 18:38 32.773471 -116.829013 221 4191ft 96kts
28-Sep-19 18:39 32.752188 -116.847617 221 4192ft 94kts
28-Sep-19 18:40 32.730985 -116.866071 221 4192ft 94kts
28-Sep-19 18:41 32.726877 -116.894543 271 4172ft 93kts
28-Sep-19 18:42 32.730654 -116.924888 295 3816ft 90kts
28-Sep-19 18:43 32.742196 -116.951114 288 3565ft 87kts
28-Sep-19 18:44 32.751987 -116.977816 293 3172ft 89kts
28-Sep-19 18:45 32.762989 -117.004323 291 2663ft 88kts
28-Sep-19 18:45 32.771225 -117.025442 292 2417ft 77kts
28-Sep-19 18:47 32.781004 -117.050330 293 2010ft 72kts
28-Sep-19 18:48 32.790138 -117.073385 292 1579ft 78kts
28-Sep-19 18:48 32.797891 -117.093075 293 1214ft 78kts
28-Sep-19 18:50 32.808677 -117.120750 295 691ft 77kts
28-Sep-19 18:50 32.814936 -117.136477 294 425ft 50kts
28-Sep-19 18:51 32.815777 -117.140890 244 417ft 0kts
28-Sep-19 18:53 32.814897 -117.142083 114 416ft 11kts
28-Sep-19 18:53 32.813416 -117.140526 53 416ft 9kts

Navigation Log

Ident Type
Flight plan parsing failed, navigation log unavailable